Zuni Pueblo, New Mexico
Current Conditions -  °F | °C
As of 8:53 AM on Friday 19 Dec 2014 (Local Time) from KGUP Reporting Station
Clear Clear  
Wind Chill: -3°   Ceiling: Unl
Heat Index: -3°   Visibility: 10mi
Dew Point: -7°   Wind: 3mph
Humidity: 72%   Direction: 60°ENE
Pressure: 30.26"   Gusts: NA
Location:  35.0898°N, 108.763°W
Report Text: KGUP 191553Z AUTO 06003KT 10SM CLR M03/M07 A3026 RMK AO2 SLP292 I1000 T10281072
Loading
Personal Weather Stations






























Interactive Weather Map New forecast layout! Learn more

10-Day Weather Forecast

Advertisements
Track Severe Weather on mobile